Time;durP1;ratioP1;P1;durP2;ratioP2;P2;SDS_P1;SDS_P2;PMS_P1;PMS_P2;Temp;Humidity;BMP_temperature;BMP_pressure;BME280_temperature;BME280_humidity;BME280_pressure;Samples;Min_cycle;Max_cycle;Signal;HPM_P1;HPM_P2
2022/03/31 00:00:53;;;;;;;49.03;30.10;;;;;;;7.61;61.49;97378.59;4988552;28;20080;-81
2022/03/31 00:03:19;;;;;;;56.55;31.02;;;;;;;7.51;61.47;97371.41;5000818;28;20026;-81
2022/03/31 00:05:46;;;;;;;52.80;27.92;;;;;;;7.50;62.55;97371.69;5007825;28;20429;-81
2022/03/31 00:08:13;;;;;;;51.38;29.48;;;;;;;7.45;62.28;97369.81;4982498;28;20083;-81
2022/03/31 00:10:41;;;;;;;45.80;28.55;;;;;;;7.40;62.63;97366.38;5004631;28;20564;-81
2022/03/31 00:13:13;;;;;;;48.35;27.27;;;;;;;7.34;61.98;97367.41;5003860;28;20022;-81
2022/03/31 00:15:39;;;;;;;45.85;26.67;;;;;;;7.37;61.78;97364.25;5009778;28;20087;-81
2022/03/31 00:18:06;;;;;;;46.85;27.60;;;;;;;7.29;62.33;97367.44;4995170;28;20021;-81
2022/03/31 00:20:31;;;;;;;47.65;27.88;;;;;;;7.30;63.08;97361.84;5024356;28;20120;-81
2022/03/31 00:22:57;;;;;;;49.30;28.17;;;;;;;7.26;62.09;97352.03;5012510;28;20196;-81
2022/03/31 00:25:23;;;;;;;45.30;25.30;;;;;;;7.26;63.00;97365.28;5013771;28;20101;-81
2022/03/31 00:27:49;;;;;;;45.92;26.48;;;;;;;7.24;62.65;97365.56;5015938;28;20431;-81
2022/03/31 00:30:14;;;;;;;50.22;28.52;;;;;;;7.27;62.44;97362.38;5012260;28;20029;-81
2022/03/31 00:32:41;;;;;;;45.65;26.15;;;;;;;7.28;61.94;97363.16;5010918;28;20512;-81
2022/03/31 00:35:12;;;;;;;42.70;25.63;;;;;;;7.15;62.48;97361.81;5009082;28;20065;-81
2022/03/31 00:37:41;;;;;;;49.05;27.65;;;;;;;7.15;63.00;97361.03;5025522;28;20029;-81
2022/03/31 00:40:09;;;;;;;42.72;25.42;;;;;;;7.17;62.98;97367.66;5011257;28;20068;-81
2022/03/31 00:42:42;;;;;;;44.72;26.75;;;;;;;7.12;62.36;97365.00;4994116;28;20026;-81
2022/03/31 00:45:19;;;;;;;44.95;25.27;;;;;;;7.06;63.16;97363.41;5013492;28;20549;-81
2022/03/31 00:47:44;;;;;;;49.22;25.35;;;;;;;7.06;62.33;97360.75;5007407;28;20061;-81
2022/03/31 00:50:11;;;;;;;46.70;26.10;;;;;;;7.09;63.17;97375.34;5008657;28;20251;-81
2022/03/31 00:52:37;;;;;;;41.08;24.77;;;;;;;7.05;62.64;97374.28;5008699;28;20439;-81
2022/03/31 00:55:03;;;;;;;40.65;23.80;;;;;;;7.16;61.90;97375.91;5021122;28;20100;-81
2022/03/31 00:57:29;;;;;;;47.20;26.50;;;;;;;7.11;62.38;97376.69;5006759;28;20030;-81
2022/03/31 00:59:57;;;;;;;46.80;24.48;;;;;;;7.01;62.48;97373.97;5011520;28;20461;-81
2022/03/31 01:02:22;;;;;;;46.13;24.02;;;;;;;6.97;62.85;97375.56;4994509;28;20033;-81
2022/03/31 01:04:49;;;;;;;41.00;23.73;;;;;;;6.85;63.26;97372.38;5011608;28;20099;-81
2022/03/31 01:07:14;;;;;;;43.88;25.20;;;;;;;6.83;63.53;97379.78;5021283;28;20025;-81
2022/03/31 01:09:40;;;;;;;52.30;30.05;;;;;;;6.82;63.76;97372.88;4993251;28;20044;-81
2022/03/31 01:12:05;;;;;;;50.90;29.20;;;;;;;6.88;63.78;97382.44;5007481;28;20033;-80
2022/03/31 01:14:31;;;;;;;56.28;31.63;;;;;;;6.82;63.81;97370.22;5009263;28;20034;-81
2022/03/31 01:16:56;;;;;;;62.58;32.55;;;;;;;6.87;64.13;97372.09;5015551;28;20416;-81
2022/03/31 01:19:22;;;;;;;60.70;33.40;;;;;;;6.81;64.09;97372.06;5012059;28;20450;-81
2022/03/31 01:21:47;;;;;;;61.45;35.28;;;;;;;6.88;64.45;97363.88;4994419;28;20034;-81
2022/03/31 01:24:14;;;;;;;63.78;34.08;;;;;;;6.91;64.67;97362.56;5012061;28;20490;-81
2022/03/31 01:26:39;;;;;;;63.05;36.70;;;;;;;6.98;64.86;97371.06;5011061;28;20046;-81
2022/03/31 01:29:05;;;;;;;59.90;35.03;;;;;;;6.90;64.50;97356.47;5007602;28;20037;-81
2022/03/31 01:31:31;;;;;;;59.33;33.53;;;;;;;6.93;64.64;97358.59;5005028;28;20064;-81
2022/03/31 01:33:57;;;;;;;66.95;35.83;;;;;;;6.96;64.40;97351.97;4990228;28;20485;-81
2022/03/31 01:36:23;;;;;;;61.35;34.92;;;;;;;6.98;64.51;97358.59;5024441;28;20124;-81
2022/03/31 01:38:49;;;;;;;52.85;31.58;;;;;;;7.05;64.74;97353.06;5011980;28;20037;-81
2022/03/31 01:41:14;;;;;;;60.92;34.50;;;;;;;6.91;65.46;97351.94;5024250;28;20397;-81
2022/03/31 01:43:39;;;;;;;58.45;33.85;;;;;;;6.95;65.20;97351.16;5007898;28;20081;-81
2022/03/31 01:46:08;;;;;;;59.67;34.47;;;;;;;7.08;64.56;97349.88;5010458;28;20037;-81
2022/03/31 01:48:36;;;;;;;61.22;35.95;;;;;;;6.96;64.85;97342.16;5007416;28;20104;-81
2022/03/31 01:51:05;;;;;;;64.15;36.80;;;;;;;7.00;64.12;97335.28;5004826;28;20026;-81
2022/03/31 01:53:32;;;;;;;61.55;34.95;;;;;;;7.00;64.83;97337.13;4993509;28;20450;-81
2022/03/31 01:55:57;;;;;;;55.95;34.58;;;;;;;6.99;64.56;97333.66;4991340;28;20044;-81
2022/03/31 01:58:23;;;;;;;60.25;35.60;;;;;;;6.99;64.69;97331.00;5007779;28;20030;-81
2022/03/31 02:00:48;;;;;;;58.65;33.25;;;;;;;6.99;64.47;97323.06;5012186;28;20026;-81
2022/03/31 02:03:14;;;;;;;63.40;33.88;;;;;;;6.96;64.16;97328.91;5014589;28;20398;-81
2022/03/31 02:05:39;;;;;;;58.55;34.67;;;;;;;7.01;64.59;97326.25;5014905;28;20477;-81
2022/03/31 02:08:04;;;;;;;61.70;32.65;;;;;;;7.02;64.72;97330.50;4975202;28;20026;-81
2022/03/31 02:10:30;;;;;;;59.17;33.75;;;;;;;6.95;64.51;97324.66;5005578;28;20048;-81
2022/03/31 02:12:55;;;;;;;61.33;34.03;;;;;;;6.97;65.16;97329.72;5008103;28;20056;-81
2022/03/31 02:15:21;;;;;;;53.70;31.95;;;;;;;6.96;64.49;97328.09;5010604;28;20549;-81
2022/03/31 02:17:48;;;;;;;59.53;33.05;;;;;;;6.93;65.10;97323.31;5004058;28;20026;-81
2022/03/31 02:20:14;;;;;;;61.47;33.40;;;;;;;6.99;65.09;97323.06;5002260;28;20044;-81
2022/03/31 02:22:39;;;;;;;58.63;33.67;;;;;;;6.97;64.92;97319.88;5006425;28;20027;-81
2022/03/31 02:25:08;;;;;;;57.40;31.38;;;;;;;6.99;64.90;97323.06;5005974;28;20049;-81
2022/03/31 02:27:38;;;;;;;57.92;31.58;;;;;;;6.96;64.72;97323.59;5003266;28;20392;-81
2022/03/31 02:30:05;;;;;;;51.08;30.70;;;;;;;7.00;64.51;97327.31;4982179;28;20438;-81
2022/03/31 02:32:31;;;;;;;56.47;30.52;;;;;;;6.97;65.00;97319.09;5003312;28;20085;-81
2022/03/31 02:34:57;;;;;;;51.50;30.08;;;;;;;7.01;64.74;97312.19;5000423;28;20465;-81
2022/03/31 02:37:22;;;;;;;49.90;29.65;;;;;;;7.00;64.36;97310.59;5003878;28;20030;-81
2022/03/31 02:39:48;;;;;;;49.97;28.95;;;;;;;6.96;64.78;97306.88;4999527;28;20057;-81
2022/03/31 02:42:13;;;;;;;49.08;28.20;;;;;;;7.01;64.29;97312.19;4987350;28;20037;-81
2022/03/31 02:44:38;;;;;;;47.35;28.27;;;;;;;6.96;64.30;97310.34;4998857;28;20044;-81
2022/03/31 02:47:04;;;;;;;48.15;26.67;;;;;;;6.93;65.20;97300.25;5000347;28;20099;-81
2022/03/31 02:49:29;;;;;;;41.22;25.67;;;;;;;6.93;64.88;97302.91;5001680;28;20092;-81
2022/03/31 02:51:55;;;;;;;45.90;27.20;;;;;;;6.95;65.02;97299.97;5020776;28;20087;-81
2022/03/31 02:57:04;;;;;;;42.05;26.02;;;;;;;6.89;64.43;97288.56;4985699;28;20064;-81
2022/03/31 02:59:30;;;;;;;45.35;26.45;;;;;;;6.94;64.92;97285.94;4986984;28;20113;-81
2022/03/31 03:01:56;;;;;;;42.95;24.67;;;;;;;6.93;64.42;97289.63;4985889;28;20477;-81
2022/03/31 03:04:22;;;;;;;42.50;26.52;;;;;;;6.93;64.78;97291.47;5003635;28;20049;-80
2022/03/31 03:06:47;;;;;;;45.65;27.10;;;;;;;6.94;65.12;97288.59;5006142;28;20470;-81
2022/03/31 03:09:12;;;;;;;46.58;28.52;;;;;;;6.93;64.14;97281.69;4999914;28;20474;-81
2022/03/31 03:11:38;;;;;;;41.85;26.40;;;;;;;6.94;64.26;97285.94;5007056;28;20026;-81
2022/03/31 03:14:03;;;;;;;45.38;26.35;;;;;;;6.94;64.02;97283.28;5000962;28;20053;-81
2022/03/31 03:16:29;;;;;;;47.67;27.85;;;;;;;6.88;64.81;97279.00;5004128;28;20481;-81
2022/03/31 03:18:54;;;;;;;50.08;29.48;;;;;;;6.90;64.75;97276.91;4967994;28;20433;-81
2022/03/31 03:21:20;;;;;;;52.00;30.98;;;;;;;6.92;63.96;97263.38;5003489;28;20072;-81
2022/03/31 03:23:46;;;;;;;59.42;32.13;;;;;;;6.91;65.22;97259.13;5021262;28;20444;-81
2022/03/31 03:26:12;;;;;;;58.22;32.55;;;;;;;6.92;65.07;97261.53;5000187;28;20038;-81
2022/03/31 03:28:38;;;;;;;53.22;30.25;;;;;;;6.90;64.17;97261.00;5000306;28;20037;-81
2022/03/31 03:31:06;;;;;;;57.22;30.13;;;;;;;6.90;64.74;97260.19;4998364;28;20038;-81
2022/03/31 03:33:32;;;;;;;61.28;33.05;;;;;;;6.86;64.39;97269.75;4997865;28;20030;-81
2022/03/31 03:36:00;;;;;;;56.42;33.00;;;;;;;6.87;64.32;97266.81;4983747;28;20088;-80
2022/03/31 03:38:26;;;;;;;58.38;30.63;;;;;;;6.91;63.97;97272.38;5000692;28;20090;-81
2022/03/31 03:40:51;;;;;;;64.88;34.10;;;;;;;6.86;65.31;97267.09;5000756;28;20037;-81
2022/03/31 03:43:17;;;;;;;59.83;31.73;;;;;;;6.93;64.90;97259.66;5021536;28;20492;-81
2022/03/31 03:45:42;;;;;;;60.88;33.90;;;;;;;6.86;64.50;97262.56;5001470;28;20705;-81
2022/03/31 03:48:10;;;;;;;62.20;32.58;;;;;;;6.88;64.73;97262.31;4990554;28;20037;-81
2022/03/31 03:50:36;;;;;;;58.17;30.52;;;;;;;6.90;64.62;97270.81;4991338;28;20042;-81
2022/03/31 03:53:03;;;;;;;56.97;32.15;;;;;;;6.87;64.40;97261.53;5003741;28;20025;-81
2022/03/31 03:55:30;;;;;;;58.20;31.15;;;;;;;6.92;65.03;97269.50;5008385;28;20406;-81
2022/03/31 03:57:56;;;;;;;55.75;32.13;;;;;;;6.87;64.51;97266.03;4987335;28;20022;-82
2022/03/31 04:00:22;;;;;;;61.22;33.22;;;;;;;6.89;65.13;97266.56;4996184;28;20809;-82
2022/03/31 04:02:47;;;;;;;62.33;34.30;;;;;;;6.85;64.48;97263.63;5028676;28;20054;-83
2022/03/31 04:05:13;;;;;;;57.60;30.58;;;;;;;6.87;65.02;97264.19;5013204;28;20061;-83
2022/03/31 04:07:38;;;;;;;60.30;31.63;;;;;;;6.87;64.56;97258.88;5004913;28;20578;-83
2022/03/31 04:10:04;;;;;;;52.80;29.98;;;;;;;6.86;64.55;97256.50;5025391;28;20030;-82
2022/03/31 04:12:29;;;;;;;58.03;31.08;;;;;;;6.85;64.83;97258.34;5026439;28;20032;-82
2022/03/31 04:14:54;;;;;;;53.00;30.35;;;;;;;6.81;65.03;97255.41;5009637;28;20654;-82
2022/03/31 04:17:19;;;;;;;52.75;30.42;;;;;;;6.79;64.64;97254.09;5013841;28;20040;-83
2022/03/31 04:19:45;;;;;;;50.80;29.33;;;;;;;6.82;64.50;97249.06;5009586;28;20481;-83
2022/03/31 04:22:10;;;;;;;53.45;28.90;;;;;;;6.80;65.16;97255.66;4990515;28;20056;-83
2022/03/31 04:24:36;;;;;;;52.58;28.52;;;;;;;6.86;65.02;97251.97;5005156;28;20137;-83
2022/03/31 04:27:01;;;;;;;55.85;32.20;;;;;;;6.79;64.81;97238.19;5010265;28;20034;-83
2022/03/31 04:29:27;;;;;;;52.33;30.45;;;;;;;6.88;64.29;97235.81;5008884;28;20539;-84
2022/03/31 04:31:53;;;;;;;55.08;29.80;;;;;;;6.83;64.83;97241.91;4995356;28;20038;-82
2022/03/31 04:34:19;;;;;;;57.67;30.90;;;;;;;6.83;64.74;97249.84;5026112;28;20401;-82
2022/03/31 04:36:46;;;;;;;50.50;29.27;;;;;;;6.80;65.35;97243.22;4992349;28;20599;-82
2022/03/31 04:39:12;;;;;;;52.33;29.13;;;;;;;6.80;64.73;97232.59;5014303;28;20041;-82
2022/03/31 04:41:39;;;;;;;49.60;30.15;;;;;;;6.88;64.52;97241.09;4991305;28;20054;-82
2022/03/31 04:44:04;;;;;;;54.72;30.60;;;;;;;6.82;64.41;97235.78;5011324;28;20081;-81
2022/03/31 04:46:30;;;;;;;50.03;29.85;;;;;;;6.82;64.38;97240.28;5026149;28;20049;-82
2022/03/31 04:48:55;;;;;;;50.70;29.42;;;;;;;6.78;64.89;97236.56;4987091;28;20038;-82
2022/03/31 04:51:20;;;;;;;55.63;31.25;;;;;;;6.78;64.44;97233.94;4994744;28;20029;-81
2022/03/31 04:53:46;;;;;;;59.53;33.92;;;;;;;6.75;64.80;97232.59;5003128;28;20030;-81
2022/03/31 04:56:11;;;;;;;58.88;32.95;;;;;;;6.74;64.71;97231.03;5008988;28;20141;-81
2022/03/31 04:58:37;;;;;;;56.90;32.38;;;;;;;6.76;64.44;97236.06;5010974;28;20448;-82
2022/03/31 05:01:03;;;;;;;61.33;33.20;;;;;;;6.78;65.03;97225.97;4977882;28;20041;-81
2022/03/31 05:03:29;;;;;;;54.38;31.52;;;;;;;6.80;64.45;97237.09;5006084;28;20033;-82
2022/03/31 05:05:54;;;;;;;56.30;32.20;;;;;;;6.78;64.04;97234.72;4992084;28;20030;-82
2022/03/31 05:08:19;;;;;;;53.33;31.73;;;;;;;6.75;64.07;97231.78;5012681;28;20029;-82
2022/03/31 05:10:45;;;;;;;54.33;30.35;;;;;;;6.76;64.45;97241.34;5012616;28;20036;-82
2022/03/31 05:13:11;;;;;;;56.63;31.58;;;;;;;6.79;64.26;97232.88;4991534;28;20587;-82
2022/03/31 05:15:36;;;;;;;57.00;31.85;;;;;;;6.71;64.45;97234.19;5017318;28;20061;-82
2022/03/31 05:18:02;;;;;;;58.78;32.00;;;;;;;6.72;63.99;97227.84;5001167;28;20061;-82
2022/03/31 05:20:28;;;;;;;58.28;32.20;;;;;;;6.69;64.48;97233.66;4986955;28;20103;-81
2022/03/31 05:22:53;;;;;;;58.00;31.92;;;;;;;6.70;64.93;97226.50;4970221;28;20041;-82
2022/03/31 05:25:18;;;;;;;58.10;31.00;;;;;;;6.70;64.98;97223.84;5018118;28;20559;-82
2022/03/31 05:27:46;;;;;;;62.75;35.20;;;;;;;6.73;64.64;97220.66;5019415;28;20041;-82
2022/03/31 05:30:13;;;;;;;59.55;31.30;;;;;;;6.76;64.88;97239.50;5012613;28;20127;-82
2022/03/31 05:32:39;;;;;;;59.22;32.38;;;;;;;6.74;64.38;97228.38;5017053;28;20030;-82
2022/03/31 05:35:09;;;;;;;61.92;34.20;;;;;;;6.75;64.70;97215.88;5015149;28;20086;-81
2022/03/31 05:37:35;;;;;;;59.25;33.65;;;;;;;6.75;64.90;97229.13;5008095;28;20037;-81
2022/03/31 05:40:06;;;;;;;61.75;33.70;;;;;;;6.74;64.69;97224.91;5011870;28;20033;-82
2022/03/31 05:42:33;;;;;;;57.28;31.30;;;;;;;6.77;64.43;97229.69;5019710;28;20033;-82
2022/03/31 05:44:59;;;;;;;60.53;33.60;;;;;;;6.75;65.00;97229.94;5016244;28;20125;-82
2022/03/31 05:47:25;;;;;;;60.53;34.42;;;;;;;6.72;64.82;97224.38;5019167;28;20418;-81
2022/03/31 05:49:50;;;;;;;56.95;32.35;;;;;;;6.78;64.17;97232.06;5008347;28;20060;-81
2022/03/31 05:52:15;;;;;;;57.30;31.50;;;;;;;6.80;64.44;97226.50;5011055;28;20069;-82
2022/03/31 05:54:41;;;;;;;53.40;32.97;;;;;;;6.73;64.41;97225.97;4974938;28;20374;-82
2022/03/31 05:57:06;;;;;;;58.75;32.13;;;;;;;6.74;64.91;97231.03;5009562;28;20045;-81
2022/03/31 05:59:31;;;;;;;55.15;30.95;;;;;;;6.68;64.34;97237.34;5007853;28;20014;-81
2022/03/31 06:01:57;;;;;;;63.65;31.83;;;;;;;6.75;65.12;97240.53;4998868;28;20111;-82
2022/03/31 06:04:22;;;;;;;58.92;35.35;;;;;;;6.74;64.63;97248.78;5005983;28;20034;-82
2022/03/31 06:06:48;;;;;;;54.90;30.77;;;;;;;6.71;64.54;97246.63;4985707;28;20513;-82
2022/03/31 06:09:14;;;;;;;62.33;32.40;;;;;;;6.76;64.77;97242.16;5006474;28;20117;-82
2022/03/31 06:11:40;;;;;;;55.63;32.90;;;;;;;6.75;65.59;97243.19;5005044;28;20021;-82
2022/03/31 06:14:05;;;;;;;55.72;34.08;;;;;;;6.76;64.95;97238.69;5009919;28;20049;-82
2022/03/31 06:16:31;;;;;;;58.97;30.83;;;;;;;6.79;64.88;97246.13;5010175;28;20366;-81
2022/03/31 06:18:56;;;;;;;56.72;31.55;;;;;;;6.76;64.62;97242.16;5012240;28;20124;-82
2022/03/31 06:21:22;;;;;;;63.60;33.55;;;;;;;6.80;64.58;97247.72;5007787;28;20470;-82
2022/03/31 06:23:48;;;;;;;50.33;30.67;;;;;;;6.74;65.08;97243.47;4997726;28;20425;-81
2022/03/31 06:26:13;;;;;;;53.45;30.30;;;;;;;6.76;65.11;97251.97;5018724;28;20041;-82
2022/03/31 06:28:39;;;;;;;55.33;30.00;;;;;;;6.75;64.88;97245.84;5019156;28;20578;-82
2022/03/31 06:31:05;;;;;;;52.25;30.35;;;;;;;6.76;65.41;97249.31;5004912;28;20029;-83
2022/03/31 06:33:31;;;;;;;51.03;29.10;;;;;;;6.73;65.53;97252.47;5003692;28;20091;-81
2022/03/31 06:35:56;;;;;;;50.42;28.75;;;;;;;6.76;65.01;97258.06;5002771;28;20481;-82
2022/03/31 06:38:21;;;;;;;48.53;29.15;;;;;;;6.76;64.96;97255.41;4986887;28;20132;-82
2022/03/31 06:41:06;;;;;;;49.70;28.92;;;;;;;6.74;65.35;97248.78;5007538;28;20904;-82
2022/03/31 06:43:35;;;;;;;45.42;26.70;;;;;;;6.73;64.84;97255.13;4989400;28;21017;-81
2022/03/31 06:46:01;;;;;;;45.03;26.98;;;;;;;6.77;65.04;97256.22;5002266;28;20048;-81
2022/03/31 06:48:27;;;;;;;47.22;28.58;;;;;;;6.77;64.87;97256.22;4991941;28;20451;-81
2022/03/31 06:50:53;;;;;;;53.00;29.52;;;;;;;6.82;64.72;97250.91;5001325;28;20044;-81
2022/03/31 06:53:18;;;;;;;50.95;28.65;;;;;;;6.78;64.68;97248.00;4993711;28;20037;-81
2022/03/31 06:55:45;;;;;;;50.28;28.15;;;;;;;6.74;65.39;97248.78;5001006;28;20032;-81
2022/03/31 06:58:10;;;;;;;43.60;26.50;;;;;;;6.74;64.83;97251.44;5008953;28;20106;-81
2022/03/31 07:00:36;;;;;;;51.60;28.42;;;;;;;6.71;64.94;97255.41;5008566;28;20061;-81
2022/03/31 07:03:01;;;;;;;50.47;29.38;;;;;;;6.75;64.64;97267.06;5005814;28;20115;-81
2022/03/31 07:05:26;;;;;;;45.90;27.85;;;;;;;6.72;65.08;97267.59;5020375;28;20112;-81
2022/03/31 07:07:52;;;;;;;49.75;28.50;;;;;;;6.71;65.25;97265.19;5009773;28;20044;-82
2022/03/31 07:10:18;;;;;;;48.85;28.00;;;;;;;6.77;64.65;97266.81;5002520;28;20057;-82
2022/03/31 07:12:44;;;;;;;50.40;27.98;;;;;;;6.73;65.27;97271.03;5028210;28;20452;-83
2022/03/31 07:15:10;;;;;;;48.05;27.73;;;;;;;6.74;64.99;97262.84;5017559;28;20041;-83
2022/03/31 07:17:37;;;;;;;48.33;27.48;;;;;;;6.76;64.69;97270.50;5020974;28;20289;-83
2022/03/31 07:20:03;;;;;;;42.17;25.33;;;;;;;6.75;64.59;97274.22;5015853;28;20057;-83
2022/03/31 07:22:29;;;;;;;42.83;27.08;;;;;;;6.72;65.18;97269.44;5007386;28;20113;-83
2022/03/31 07:24:54;;;;;;;42.33;25.45;;;;;;;6.74;65.07;97280.59;4979301;28;20131;-83
2022/03/31 07:27:19;;;;;;;45.60;27.65;;;;;;;6.71;64.99;97284.56;5003500;28;20241;-82
2022/03/31 07:29:45;;;;;;;56.63;30.38;;;;;;;6.72;64.85;97278.22;5012718;28;20068;-83
2022/03/31 07:32:10;;;;;;;52.03;30.40;;;;;;;6.67;64.41;97272.88;5016543;28;20144;-83
2022/03/31 07:34:36;;;;;;;49.45;28.75;;;;;;;6.79;65.22;97276.06;5012012;28;20494;-83
2022/03/31 07:37:02;;;;;;;48.03;27.98;;;;;;;6.74;64.61;97273.44;4996494;28;20036;-82
2022/03/31 07:39:27;;;;;;;44.20;26.20;;;;;;;6.73;64.90;97285.09;5012196;28;20465;-82
2022/03/31 07:41:53;;;;;;;44.47;26.98;;;;;;;6.78;65.05;97277.16;5011938;28;20121;-82
2022/03/31 07:44:18;;;;;;;43.35;25.02;;;;;;;6.82;64.68;97277.41;5016313;28;20087;-82
2022/03/31 07:46:44;;;;;;;40.75;24.48;;;;;;;6.77;64.98;97266.81;5024343;28;20034;-82
2022/03/31 07:49:09;;;;;;;41.08;24.60;;;;;;;6.80;65.22;97274.22;5008324;28;20140;-82
2022/03/31 07:51:35;;;;;;;35.55;22.48;;;;;;;6.79;64.86;97264.69;5011658;28;20045;-82
2022/03/31 07:54:01;;;;;;;40.88;24.27;;;;;;;6.78;64.83;97273.69;4994667;28;20048;-82
2022/03/31 07:56:26;;;;;;;41.25;25.92;;;;;;;6.82;65.03;97259.66;5026343;28;20073;-82
2022/03/31 07:58:52;;;;;;;38.92;23.75;;;;;;;6.85;64.71;97268.13;5007652;28;20057;-82
2022/03/31 08:01:17;;;;;;;37.38;23.75;;;;;;;6.85;64.67;97249.56;5007997;28;20030;-82
2022/03/31 08:03:42;;;;;;;33.10;22.10;;;;;;;6.84;64.54;97262.03;5006499;28;20037;-82
2022/03/31 08:06:08;;;;;;;34.83;21.70;;;;;;;6.73;64.70;97242.66;5010388;28;20033;-82
2022/03/31 08:08:34;;;;;;;30.88;21.38;;;;;;;6.88;64.90;97257.03;5008713;28;20034;-82
2022/03/31 08:10:59;;;;;;;35.80;22.27;;;;;;;6.91;64.60;97248.53;5009479;28;20072;-82
2022/03/31 08:13:26;;;;;;;30.25;21.00;;;;;;;6.95;64.67;97258.34;4976840;28;20033;-82
2022/03/31 08:15:53;;;;;;;31.52;19.67;;;;;;;6.92;64.28;97250.94;4992115;28;20029;-82
2022/03/31 08:18:19;;;;;;;33.10;20.52;;;;;;;6.99;64.12;97253.31;5005422;28;20091;-82
2022/03/31 08:20:45;;;;;;;29.33;18.90;;;;;;;6.93;64.41;97249.84;5026175;28;20033;-82
2022/03/31 08:23:11;;;;;;;30.67;18.13;;;;;;;6.96;64.28;97241.38;5017322;28;20029;-82
2022/03/31 08:25:36;;;;;;;31.10;18.15;;;;;;;6.95;64.24;97241.63;4985979;28;20030;-82
2022/03/31 08:28:01;;;;;;;25.83;17.42;;;;;;;6.95;64.29;97245.06;5006171;28;20106;-82
2022/03/31 08:30:28;;;;;;;26.15;18.25;;;;;;;7.02;64.06;97247.47;4994032;28;20469;-82
2022/03/31 08:32:53;;;;;;;26.55;17.60;;;;;;;6.95;63.90;97238.97;5003876;28;20046;-82
2022/03/31 08:35:19;;;;;;;26.67;16.70;;;;;;;7.04;64.31;97245.34;5013119;28;20108;-82
2022/03/31 08:37:45;;;;;;;24.63;17.45;;;;;;;7.05;63.67;97231.84;5007868;28;20512;-82
2022/03/31 08:40:12;;;;;;;25.25;17.85;;;;;;;7.03;64.30;97235.81;5014736;28;20574;-82
2022/03/31 08:42:40;;;;;;;32.03;18.48;;;;;;;7.05;64.25;97231.84;5006230;28;20529;-83
2022/03/31 08:45:09;;;;;;;26.80;18.60;;;;;;;7.07;63.98;97235.03;5022216;28;20037;-82
2022/03/31 08:47:35;;;;;;;30.15;19.73;;;;;;;7.14;64.28;97229.44;5002058;28;20057;-81
2022/03/31 08:50:00;;;;;;;30.00;18.88;;;;;;;7.21;64.70;97244.03;5011076;28;20519;-82
2022/03/31 08:52:26;;;;;;;29.83;19.25;;;;;;;7.26;63.80;97236.06;5014265;28;20045;-82
2022/03/31 08:54:51;;;;;;;26.23;18.15;;;;;;;7.25;63.78;97231.81;5029356;28;20117;-82
2022/03/31 08:57:17;;;;;;;23.67;18.13;;;;;;;7.17;63.81;97234.22;5018913;28;20110;-82
2022/03/31 08:59:42;;;;;;;25.90;18.08;;;;;;;7.34;63.69;97240.03;4978413;28;20193;-82
2022/03/31 09:02:09;;;;;;;24.58;17.35;;;;;;;7.25;64.39;97242.44;5014025;28;20029;-82
2022/03/31 09:04:34;;;;;;;24.52;17.35;;;;;;;7.26;64.14;97246.69;4990821;28;20029;-82
2022/03/31 09:07:07;;;;;;;27.45;17.20;;;;;;;7.34;64.13;97237.38;4988984;28;20454;-82
2022/03/31 09:09:51;;;;;;;27.15;16.77;;;;;;;7.37;63.54;97234.19;5009342;28;20049;-82
2022/03/31 09:12:16;;;;;;;28.67;16.85;;;;;;;7.40;63.16;97238.97;5009355;28;20022;-82
2022/03/31 09:14:41;;;;;;;24.95;17.77;;;;;;;7.37;63.54;97231.53;5008506;28;20042;-82
2022/03/31 09:17:11;;;;;;;25.70;16.65;;;;;;;7.50;63.67;97233.66;4990995;28;20102;-83
2022/03/31 09:19:36;;;;;;;20.25;15.35;;;;;;;7.56;62.89;97230.72;5014101;28;20072;-83
2022/03/31 09:22:02;;;;;;;23.38;16.00;;;;;;;7.58;62.71;97235.75;5011617;28;20596;-83
2022/03/31 09:24:28;;;;;;;22.40;15.77;;;;;;;7.53;63.13;97241.09;5010670;28;20030;-82
2022/03/31 09:26:58;;;;;;;21.52;16.55;;;;;;;7.64;62.72;97240.00;5010144;28;20049;-82
2022/03/31 09:29:26;;;;;;;28.20;16.60;;;;;;;7.61;62.80;97232.56;5013202;28;20060;-82
2022/03/31 09:31:52;;;;;;;25.48;16.85;;;;;;;7.60;63.00;97228.31;5002736;28;20417;-82
2022/03/31 09:34:18;;;;;;;29.42;18.83;;;;;;;7.65;62.58;97235.47;5002363;28;20080;-82
2022/03/31 09:36:49;;;;;;;29.42;18.42;;;;;;;7.58;62.94;97228.59;5002366;28;20030;-82
2022/03/31 09:39:17;;;;;;;26.98;17.05;;;;;;;7.70;62.78;97232.81;5005104;28;20026;-82
2022/03/31 09:41:46;;;;;;;28.27;17.23;;;;;;;7.74;63.08;97234.66;4982377;28;20087;-83
2022/03/31 09:44:21;;;;;;;28.52;18.23;;;;;;;7.57;63.30;97224.38;5002905;28;20026;-82
2022/03/31 09:46:47;;;;;;;28.90;17.27;;;;;;;7.67;63.09;97233.34;5004796;28;20505;-82
2022/03/31 09:49:21;;;;;;;27.23;17.48;;;;;;;7.69;63.33;97234.66;4973702;28;20041;-82
2022/03/31 09:51:50;;;;;;;34.70;19.73;;;;;;;7.81;62.84;97229.06;5002603;28;20164;-82
2022/03/31 09:54:17;;;;;;;29.13;19.45;;;;;;;7.77;62.18;97233.34;5010185;28;20111;-82
2022/03/31 09:56:43;;;;;;;34.55;20.23;;;;;;;7.82;62.97;97225.38;5004978;28;20080;-82
2022/03/31 09:59:11;;;;;;;31.23;19.98;;;;;;;7.83;62.35;97226.94;5007477;28;20501;-82
2022/03/31 10:01:39;;;;;;;32.47;19.65;;;;;;;7.77;62.99;97228.03;4992262;28;20030;-82
2022/03/31 10:04:09;;;;;;;32.63;20.15;;;;;;;7.77;62.76;97220.06;5005824;28;20060;-83
2022/03/31 10:06:38;;;;;;;32.00;18.92;;;;;;;7.80;62.77;97227.50;5004909;28;20029;-82
2022/03/31 10:09:06;;;;;;;31.73;20.85;;;;;;;7.79;62.32;97225.91;4987285;28;20034;-82
2022/03/31 10:11:42;;;;;;;26.35;17.70;;;;;;;7.82;62.67;97231.44;5022314;28;20084;-82
2022/03/31 10:15:05;;;;;;;29.25;19.33;;;;;;;7.75;62.05;97236.28;5028180;28;20051;-83
2022/03/31 10:17:31;;;;;;;28.73;18.25;;;;;;;7.82;61.94;97228.78;5008841;28;20030;-82
2022/03/31 10:20:14;;;;;;;26.58;18.10;;;;;;;7.83;62.16;97235.72;4990513;28;20279;-82
2022/03/31 10:25:37;;;;;;;24.88;16.92;;;;;;;7.79;62.46;97231.22;5008940;28;20044;-82
2022/03/31 10:28:11;;;;;;;26.67;18.35;;;;;;;7.84;62.23;97231.19;5006095;28;20033;-82
2022/03/31 10:30:37;;;;;;;29.00;18.90;;;;;;;7.90;62.00;97228.25;5009798;28;20389;-82
2022/03/31 10:33:05;;;;;;;30.92;17.77;;;;;;;7.83;62.63;97225.09;5013110;28;20061;-83
2022/03/31 10:35:40;;;;;;;27.35;18.38;;;;;;;7.82;61.94;97220.06;5019633;28;20036;-85
2022/03/31 10:38:18;;;;;;;25.98;17.60;;;;;;;7.88;61.71;97221.63;5008653;28;20387;-85
2022/03/31 10:40:49;;;;;;;29.02;18.13;;;;;;;7.90;61.72;97217.63;5006165;28;20034;-84
2022/03/31 10:43:26;;;;;;;29.08;17.20;;;;;;;7.81;62.23;97215.78;4996469;28;20065;-85
2022/03/31 10:45:54;;;;;;;24.63;16.23;;;;;;;7.96;61.73;97218.41;5001463;28;20473;-85
2022/03/31 10:48:25;;;;;;;30.25;18.00;;;;;;;7.95;61.24;97214.16;4986482;28;20105;-83
2022/03/31 10:51:09;;;;;;;27.23;16.58;;;;;;;7.82;61.54;97217.41;4986823;28;20026;-83
2022/03/31 10:53:41;;;;;;;29.90;18.27;;;;;;;7.84;61.67;97204.66;5006481;28;20033;-83
2022/03/31 10:56:25;;;;;;;26.08;17.88;;;;;;;7.88;61.68;97205.69;5003423;28;20508;-82
2022/03/31 10:58:55;;;;;;;28.30;17.67;;;;;;;7.88;61.01;97206.50;4985303;28;20443;-83
2022/03/31 11:01:23;;;;;;;25.48;16.52;;;;;;;7.84;61.68;97199.31;5023916;28;20034;-83
2022/03/31 11:03:50;;;;;;;22.95;15.18;;;;;;;7.80;61.58;97193.75;4996569;28;20444;-82
2022/03/31 11:06:17;;;;;;;23.00;16.35;;;;;;;7.85;61.52;97188.44;4989236;28;20029;-82
2022/03/31 11:08:46;;;;;;;26.67;16.42;;;;;;;7.91;61.52;97186.53;4990517;28;20034;-82
2022/03/31 11:11:28;;;;;;;24.02;17.15;;;;;;;7.88;61.17;97190.56;5001768;28;20030;-83
2022/03/31 11:13:57;;;;;;;28.52;17.55;;;;;;;7.99;61.16;97186.00;5009070;28;20065;-83
2022/03/31 11:16:37;;;;;;;28.67;16.33;;;;;;;7.91;61.76;97175.91;5009071;28;20037;-85
2022/03/31 11:19:04;;;;;;;24.17;15.90;;;;;;;8.04;61.04;97186.75;5009537;28;20413;-83
2022/03/31 11:21:35;;;;;;;22.65;14.68;;;;;;;7.92;61.60;97177.50;5006109;28;20030;-83
2022/03/31 11:24:00;;;;;;;24.73;15.48;;;;;;;7.98;61.44;97181.72;4988243;28;20045;-83
2022/03/31 11:26:30;;;;;;;22.42;15.05;;;;;;;7.99;61.43;97181.47;5007230;28;20498;-83
2022/03/31 11:28:56;;;;;;;21.90;15.38;;;;;;;8.01;61.36;97182.00;4986871;28;20112;-83